West Miami, Florida
Current Conditions -  °F | °C
As of 6:55 PM on Monday 20 Oct 2014 (Local Time) from KMIA Reporting Station
Overcast Overcast  
Wind Chill: 74°   Ceiling: 6500
Heat Index: 74°   Visibility: 10mi
Dew Point: 72°   Wind: 6mph
Humidity: 93%   Direction: 140°SE
Pressure: 29.96"   Gusts: 17mph
Location:  25.7365°N, 80.3112°W
Report Text: KMIA 202255Z 14005G15KT 10SM FEW008 SCT030 BKN065 OVC130 23/22 A2996 RMK AO2 OCNL LTGIC DSNT E-SE CB DSNT E-SE T02330222
Loading
Personal Weather Stations






























Interactive Weather Map New forecast layout! Learn more

10-Day Weather Forecast

Advertisements
Track Severe Weather on mobile